Time;durP1;ratioP1;P1;durP2;ratioP2;P2;SDS_P1;SDS_P2;PMS_P1;PMS_P2;Temp;Humidity;BMP_temperature;BMP_pressure;BME280_temperature;BME280_humidity;BME280_pressure;Samples;Min_cycle;Max_cycle;Signal;HPM_P1;HPM_P2
2022/07/23 00:00:54;;;;;;;15.03;13.13;;;21.90;99.90;;;;;;5034363;28;20573;-74
2022/07/23 00:03:20;;;;;;;12.97;11.53;;;21.80;99.90;;;;;;5033204;28;20174;-74
2022/07/23 00:05:45;;;;;;;10.93;9.83;;;21.80;99.90;;;;;;5069623;22;20294;-76
2022/07/23 00:08:12;;;;;;;11.77;10.70;;;21.80;99.90;;;;;;5031930;28;20176;-75
2022/07/23 00:10:38;;;;;;;12.77;11.23;;;21.70;99.90;;;;;;5032867;28;20571;-77
2022/07/23 00:13:03;;;;;;;13.13;11.83;;;21.70;99.90;;;;;;5034130;28;20662;-77
2022/07/23 00:15:29;;;;;;;12.87;11.57;;;21.60;99.90;;;;;;5035995;28;21237;-78
2022/07/23 00:17:55;;;;;;;16.07;13.20;;;21.60;99.90;;;;;;5036694;28;20219;-78
2022/07/23 00:20:21;;;;;;;15.00;13.50;;;21.50;99.90;;;;;;5033595;28;20937;-77
2022/07/23 00:22:52;;;;;;;18.17;13.30;;;21.40;99.90;;;;;;5033408;28;20593;-77
2022/07/23 00:25:20;;;;;;;17.40;12.80;;;21.20;99.90;;;;;;5033667;28;20596;-77
2022/07/23 00:27:45;;;;;;;13.60;12.30;;;21.00;99.90;;;;;;5034032;28;20571;-77
2022/07/23 00:30:12;;;;;;;16.80;14.13;;;20.90;99.90;;;;;;5033806;28;20930;-77
2022/07/23 00:32:52;;;;;;;15.97;13.40;;;20.70;99.90;;;;;;5033862;28;20231;-77
2022/07/23 00:35:20;;;;;;;14.43;12.80;;;20.50;99.90;;;;;;5033604;28;20584;-77
2022/07/23 00:37:47;;;;;;;15.37;13.87;;;20.40;99.90;;;;;;5034124;28;20601;-77
2022/07/23 00:40:13;;;;;;;15.80;14.20;;;20.20;99.90;;;;;;5033133;28;20576;-78
2022/07/23 00:42:39;;;;;;;14.30;12.80;;;20.10;99.90;;;;;;5033474;28;20707;-77
2022/07/23 00:45:06;;;;;;;14.37;12.87;;;20.00;99.90;;;;;;5036010;28;20604;-77
2022/07/23 00:47:32;;;;;;;15.90;13.60;;;20.00;99.90;;;;;;5033914;28;20928;-77
2022/07/23 00:49:58;;;;;;;15.77;14.20;;;19.90;99.90;;;;;;5032160;28;20564;-77
2022/07/23 00:52:24;;;;;;;15.00;13.40;;;19.90;99.90;;;;;;5032086;28;20584;-77
2022/07/23 00:54:51;;;;;;;14.90;13.00;;;19.80;99.90;;;;;;5033229;28;20209;-77
2022/07/23 00:57:17;;;;;;;14.30;12.83;;;19.80;99.90;;;;;;5015589;28;20614;-77
2022/07/23 00:59:44;;;;;;;16.07;12.57;;;19.70;99.90;;;;;;5015375;28;20569;-77
2022/07/23 01:02:09;;;;;;;13.93;12.57;;;19.70;99.90;;;;;;5032102;28;20568;-76
2022/07/23 01:04:35;;;;;;;13.77;11.27;;;19.70;99.90;;;;;;5032777;28;20628;-76
2022/07/23 01:07:01;;;;;;;14.20;10.77;;;19.60;99.90;;;;;;5033160;28;20178;-76
2022/07/23 01:09:27;;;;;;;12.50;11.20;;;19.60;99.90;;;;;;5032013;28;20207;-76
2022/07/23 01:11:55;;;;;;;12.33;10.90;;;19.60;99.90;;;;;;5031767;28;20568;-76
2022/07/23 01:14:21;;;;;;;13.00;11.47;;;19.50;99.90;;;;;;5031420;28;20678;-77
2022/07/23 01:16:48;;;;;;;12.50;11.20;;;19.40;99.90;;;;;;5015600;28;20985;-77
2022/07/23 01:19:14;;;;;;;11.63;10.50;;;19.40;99.90;;;;;;5033415;28;20592;-77
2022/07/23 01:21:46;;;;;;;12.10;10.80;;;19.20;99.90;;;;;;5018781;28;20577;-77
2022/07/23 01:24:12;;;;;;;13.20;10.67;;;19.10;99.90;;;;;;5032735;28;20560;-77
2022/07/23 01:26:47;;;;;;;10.60;9.37;;;19.10;99.90;;;;;;5031643;28;20565;-77
2022/07/23 01:29:13;;;;;;;10.73;9.50;;;19.10;99.90;;;;;;5031494;28;20595;-78
2022/07/23 01:31:39;;;;;;;11.40;10.23;;;19.10;99.90;;;;;;5031356;28;20583;-77
2022/07/23 01:34:08;;;;;;;15.20;11.10;;;19.00;99.90;;;;;;5030800;28;21167;-77
2022/07/23 01:36:34;;;;;;;13.33;12.03;;;19.00;99.90;;;;;;5031494;28;20634;-76
2022/07/23 01:39:01;;;;;;;11.07;9.97;;;19.00;99.90;;;;;;5031328;28;21461;-77
2022/07/23 01:41:26;;;;;;;12.60;10.13;;;19.00;99.90;;;;;;5031293;28;20577;-77
2022/07/23 01:43:52;;;;;;;10.20;9.20;;;19.00;99.90;;;;;;5032552;28;20580;-77
2022/07/23 01:46:18;;;;;;;11.07;9.53;;;19.00;99.90;;;;;;5031201;28;20185;-75
2022/07/23 01:48:48;;;;;;;9.30;8.43;;;19.00;99.90;;;;;;5032323;28;20206;-76
2022/07/23 01:51:30;;;;;;;11.03;9.93;;;19.00;99.90;;;;;;5031109;28;21166;-76
2022/07/23 01:54:03;;;;;;;11.83;8.67;;;19.00;99.90;;;;;;5030648;28;20612;-76
2022/07/23 01:56:29;;;;;;;10.03;9.10;;;19.00;99.90;;;;;;5014809;28;20695;-76
2022/07/23 01:58:55;;;;;;;10.43;9.30;;;18.90;99.90;;;;;;5035489;28;20663;-77
2022/07/23 02:01:33;;;;;;;11.47;9.83;;;18.90;99.90;;;;;;5014321;28;20636;-76
2022/07/23 02:03:59;;;;;;;10.30;9.30;;;18.90;99.90;;;;;;5030760;28;20584;-76
2022/07/23 02:06:25;;;;;;;11.50;9.27;;;18.90;99.90;;;;;;5032107;28;20962;-77
2022/07/23 02:08:51;;;;;;;13.90;12.20;;;18.90;99.90;;;;;;5032200;28;20563;-76
2022/07/23 02:11:16;;;;;;;13.80;12.40;;;18.90;99.90;;;;;;5030996;28;20719;-77
2022/07/23 02:13:42;;;;;;;13.00;11.70;;;18.90;99.90;;;;;;5033503;28;20292;-76
2022/07/23 02:16:08;;;;;;;13.63;12.07;;;18.90;99.90;;;;;;5036259;28;20190;-77
2022/07/23 02:18:34;;;;;;;14.33;12.93;;;18.90;99.90;;;;;;5034043;28;20216;-78
2022/07/23 02:21:00;;;;;;;15.87;13.50;;;18.80;99.90;;;;;;5014158;28;20178;-78
2022/07/23 02:23:27;;;;;;;13.80;11.97;;;18.90;99.90;;;;;;5030787;28;20940;-76
2022/07/23 02:25:53;;;;;;;15.67;14.10;;;18.80;99.90;;;;;;5031520;28;21018;-76
2022/07/23 02:28:19;;;;;;;14.60;13.10;;;18.80;99.90;;;;;;5030814;28;20569;-77
2022/07/23 02:30:45;;;;;;;12.20;10.87;;;18.80;99.90;;;;;;5030847;28;20173;-78
2022/07/23 02:33:10;;;;;;;13.13;11.73;;;18.90;99.90;;;;;;5031796;28;20711;-76
2022/07/23 02:35:38;;;;;;;15.43;13.83;;;18.80;99.90;;;;;;5021283;28;20278;-77
2022/07/23 02:38:04;;;;;;;14.53;13.13;;;18.80;99.90;;;;;;5031815;28;20608;-76
2022/07/23 02:40:31;;;;;;;15.07;13.57;;;18.90;99.90;;;;;;5030392;28;20695;-76
2022/07/23 02:42:56;;;;;;;17.27;15.60;;;18.90;99.90;;;;;;5030415;28;20675;-77
2022/07/23 02:45:23;;;;;;;15.90;14.20;;;18.90;99.90;;;;;;5030023;28;20550;-77
2022/07/23 02:47:49;;;;;;;13.93;12.10;;;18.90;99.90;;;;;;5030109;28;20584;-77
2022/07/23 02:50:15;;;;;;;18.60;14.97;;;18.90;99.90;;;;;;5030253;28;20663;-77
2022/07/23 02:52:42;;;;;;;16.23;14.60;;;19.00;99.90;;;;;;5030319;28;20643;-77
2022/07/23 02:55:08;;;;;;;17.93;16.03;;;19.00;99.90;;;;;;5031188;28;20679;-77
2022/07/23 02:57:34;;;;;;;15.73;14.13;;;19.00;99.90;;;;;;5030355;28;20185;-77
2022/07/23 03:00:00;;;;;;;15.83;14.00;;;19.00;99.90;;;;;;5030170;28;20576;-77
2022/07/23 03:02:26;;;;;;;16.17;14.50;;;18.90;99.90;;;;;;5013827;28;20173;-77
2022/07/23 03:04:52;;;;;;;16.17;14.07;;;18.90;99.90;;;;;;5030358;28;20620;-77
2022/07/23 03:07:18;;;;;;;15.63;14.13;;;18.90;99.90;;;;;;5030978;28;20177;-77
2022/07/23 03:09:44;;;;;;;15.03;13.43;;;18.80;99.90;;;;;;5014542;28;20591;-78
2022/07/23 03:12:10;;;;;;;17.37;13.60;;;18.80;99.90;;;;;;5035533;28;20185;-77
2022/07/23 03:14:36;;;;;;;13.80;12.40;;;18.80;99.90;;;;;;5031104;28;20735;-77
2022/07/23 03:17:02;;;;;;;15.53;13.40;;;18.70;99.90;;;;;;5030103;28;20168;-78
2022/07/23 03:19:27;;;;;;;15.83;14.23;;;18.70;99.90;;;;;;5030205;28;20170;-77
2022/07/23 03:21:53;;;;;;;15.20;13.80;;;18.70;99.90;;;;;;5030145;28;20599;-78
2022/07/23 03:24:19;;;;;;;17.23;15.43;;;18.60;99.90;;;;;;5030809;28;20503;-77
2022/07/23 03:26:45;;;;;;;14.87;13.20;;;18.60;99.90;;;;;;5030200;28;20484;-77
2022/07/23 03:29:12;;;;;;;15.20;13.43;;;18.60;99.90;;;;;;5030112;28;20181;-77
2022/07/23 03:31:38;;;;;;;15.90;14.30;;;18.50;99.90;;;;;;5013530;28;20616;-77
2022/07/23 03:34:03;;;;;;;15.70;14.10;;;18.60;99.90;;;;;;5029756;28;20729;-77
2022/07/23 03:36:30;;;;;;;14.17;12.77;;;18.50;99.90;;;;;;5030157;28;20200;-77
2022/07/23 03:38:56;;;;;;;15.53;13.93;;;18.50;99.90;;;;;;5029950;28;20600;-77
2022/07/23 03:41:22;;;;;;;17.20;15.40;;;18.50;99.90;;;;;;5013343;28;20662;-77
2022/07/23 03:43:48;;;;;;;12.93;11.63;;;18.40;99.90;;;;;;5029924;28;20530;-77
2022/07/23 03:46:14;;;;;;;17.03;15.00;;;18.40;99.90;;;;;;5029698;28;20600;-77
2022/07/23 03:48:39;;;;;;;18.60;15.40;;;18.40;99.90;;;;;;5018428;28;20202;-77
2022/07/23 03:51:05;;;;;;;17.30;15.47;;;18.40;99.90;;;;;;5013363;28;20564;-77
2022/07/23 03:53:31;;;;;;;17.90;15.50;;;18.40;99.90;;;;;;5029901;28;20608;-77
2022/07/23 03:55:57;;;;;;;18.50;15.83;;;18.40;99.90;;;;;;5029233;28;20529;-77
2022/07/23 03:58:23;;;;;;;18.83;16.57;;;18.30;99.90;;;;;;5030568;28;20174;-77
2022/07/23 04:00:49;;;;;;;18.70;16.87;;;18.40;99.90;;;;;;5034515;28;20971;-77
2022/07/23 04:03:15;;;;;;;20.37;17.10;;;18.30;99.90;;;;;;5017424;28;20271;-77
2022/07/23 04:05:42;;;;;;;19.47;15.80;;;18.30;99.90;;;;;;5033114;28;20608;-77
2022/07/23 04:08:11;;;;;;;18.57;16.27;;;18.30;99.90;;;;;;5033360;28;20991;-77
2022/07/23 04:10:40;;;;;;;19.07;17.07;;;18.30;99.90;;;;;;5033366;28;20596;-77
2022/07/23 04:13:07;;;;;;;22.33;16.90;;;18.30;99.90;;;;;;5033389;28;21065;-77
2022/07/23 04:15:33;;;;;;;19.57;16.97;;;18.30;99.90;;;;;;5016909;28;20651;-77
2022/07/23 04:17:59;;;;;;;20.00;17.90;;;18.30;99.90;;;;;;5034287;28;20583;-77
2022/07/23 04:20:34;;;;;;;23.03;18.30;;;18.30;99.90;;;;;;5018419;28;20597;-77
2022/07/23 04:23:02;;;;;;;19.80;16.70;;;18.30;99.90;;;;;;5033496;28;20587;-77
2022/07/23 04:25:28;;;;;;;21.13;18.50;;;18.30;99.90;;;;;;5034908;28;20604;-77
2022/07/23 04:27:54;;;;;;;19.30;17.03;;;18.30;99.90;;;;;;5034053;28;20593;-77
2022/07/23 04:30:20;;;;;;;20.47;18.10;;;18.30;99.90;;;;;;5032869;28;20189;-77
2022/07/23 04:32:46;;;;;;;21.23;17.30;;;18.40;99.90;;;;;;5032635;28;20234;-77
2022/07/23 04:35:22;;;;;;;18.90;16.90;;;18.40;99.90;;;;;;5032267;28;21162;-77
2022/07/23 04:37:51;;;;;;;19.00;16.37;;;18.40;99.90;;;;;;5032484;28;21067;-77
2022/07/23 04:40:18;;;;;;;20.23;16.47;;;18.40;99.90;;;;;;5032426;28;20622;-77
2022/07/23 04:42:44;;;;;;;19.90;17.87;;;18.40;99.90;;;;;;5032514;28;20659;-77
2022/07/23 04:45:10;;;;;;;21.80;18.57;;;18.40;99.90;;;;;;5032160;28;20691;-77
2022/07/23 04:47:35;;;;;;;18.13;16.23;;;18.40;99.90;;;;;;5033723;28;20211;-78
2022/07/23 04:50:01;;;;;;;20.77;17.73;;;18.40;99.90;;;;;;5015956;28;21034;-78
2022/07/23 04:52:28;;;;;;;21.20;17.93;;;18.40;99.90;;;;;;5032601;28;20967;-78
2022/07/23 04:54:54;;;;;;;18.80;16.90;;;18.50;99.90;;;;;;5015795;28;20628;-78
2022/07/23 04:57:20;;;;;;;21.63;19.27;;;18.50;99.90;;;;;;5033315;28;20569;-78
2022/07/23 04:59:45;;;;;;;22.37;19.97;;;18.50;99.90;;;;;;5032783;28;20576;-75
2022/07/23 05:02:12;;;;;;;22.70;19.80;;;18.60;99.90;;;;;;5037166;28;20166;-77
2022/07/23 05:04:39;;;;;;;23.20;18.67;;;18.70;99.90;;;;;;5031643;28;20686;-76
2022/07/23 05:07:05;;;;;;;21.23;18.73;;;18.80;99.90;;;;;;5032189;28;20568;-76
2022/07/23 05:09:32;;;;;;;20.10;17.67;;;18.90;99.90;;;;;;5031431;28;20174;-76
2022/07/23 05:11:58;;;;;;;20.53;18.37;;;18.90;99.90;;;;;;5033229;28;20563;-77
2022/07/23 05:14:24;;;;;;;20.17;17.87;;;19.00;99.90;;;;;;5031571;28;20197;-76
2022/07/23 05:16:51;;;;;;;20.20;16.60;;;19.00;99.90;;;;;;5032014;28;20671;-77
2022/07/23 05:19:22;;;;;;;20.03;17.90;;;19.10;99.90;;;;;;5031869;28;21085;-77
2022/07/23 05:21:48;;;;;;;18.83;16.83;;;19.10;99.90;;;;;;5031883;28;20930;-78
2022/07/23 05:24:14;;;;;;;18.27;16.23;;;19.20;99.90;;;;;;5031371;28;20584;-78
2022/07/23 05:26:39;;;;;;;19.87;17.60;;;19.30;99.90;;;;;;5032957;28;20612;-78
2022/07/23 05:29:05;;;;;;;19.40;15.23;;;19.30;99.90;;;;;;5031660;28;20173;-78
2022/07/23 05:31:32;;;;;;;18.77;16.87;;;19.40;99.90;;;;;;5031734;28;20575;-78
2022/07/23 05:33:58;;;;;;;17.10;15.13;;;19.40;99.90;;;;;;5031626;28;20233;-78
2022/07/23 05:36:24;;;;;;;18.33;15.80;;;19.50;99.90;;;;;;5031401;28;20632;-77
2022/07/23 05:38:53;;;;;;;19.17;16.20;;;19.60;99.90;;;;;;5036588;28;20627;-76
2022/07/23 05:41:19;;;;;;;18.40;16.47;;;19.70;99.90;;;;;;5031301;28;20577;-76
2022/07/23 05:43:46;;;;;;;17.70;15.60;;;19.80;99.90;;;;;;5033092;28;20577;-76
2022/07/23 05:46:11;;;;;;;17.30;14.80;;;20.00;99.90;;;;;;5032623;28;20205;-77
2022/07/23 05:48:41;;;;;;;16.53;14.53;;;20.00;99.90;;;;;;5031144;28;21195;-77
2022/07/23 05:51:21;;;;;;;16.57;14.83;;;20.10;99.90;;;;;;5031057;28;20606;-77
2022/07/23 05:53:47;;;;;;;15.17;13.60;;;20.20;99.90;;;;;;5031252;28;20647;-77
2022/07/23 05:56:26;;;;;;;15.13;13.37;;;20.30;99.90;;;;;;5014589;28;21205;-77
2022/07/23 05:58:52;;;;;;;15.10;13.50;;;20.60;99.90;;;;;;5031175;28;20564;-76
2022/07/23 06:01:19;;;;;;;14.70;12.20;;;20.90;99.90;;;;;;5032718;28;20569;-77
2022/07/23 06:03:54;;;;;;;14.37;12.13;;;21.30;99.90;;;;;;5031697;28;20572;-76
2022/07/23 06:06:20;;;;;;;13.80;12.07;;;21.90;99.90;;;;;;5032114;28;20616;-77
2022/07/23 06:08:46;;;;;;;12.63;11.30;;;22.60;99.90;;;;;;5031307;28;20885;-76
2022/07/23 06:11:12;;;;;;;12.90;11.50;;;23.50;99.90;;;;;;5031121;28;20603;-76
2022/07/23 06:13:38;;;;;;;11.00;9.90;;;24.30;99.90;;;;;;5031145;28;20654;-76
2022/07/23 06:16:04;;;;;;;12.60;11.30;;;24.90;99.90;;;;;;5037640;28;20630;-76
2022/07/23 06:18:30;;;;;;;12.03;10.13;;;25.30;99.90;;;;;;5057051;23;20217;-75
2022/07/23 06:20:56;;;;;;;12.13;10.77;;;25.70;99.90;;;;;;5011333;28;20550;-76
2022/07/23 06:23:22;;;;;;;10.80;9.83;;;26.10;99.90;;;;;;5034560;28;20592;-76
2022/07/23 06:25:48;;;;;;;11.60;10.03;;;26.60;99.90;;;;;;5050937;28;20192;-76
2022/07/23 06:28:13;;;;;;;9.23;8.33;;;27.20;99.90;;;;;;5050551;28;20694;-76
2022/07/23 06:30:41;;;;;;;10.53;9.43;;;27.80;99.90;;;;;;5031019;28;20189;-76
2022/07/23 06:33:08;;;;;;;11.20;10.00;;;28.40;99.90;;;;;;5030677;28;20659;-76
2022/07/23 06:35:34;;;;;;;9.47;8.47;;;29.00;99.90;;;;;;5030441;28;20593;-76
2022/07/23 06:37:59;;;;;;;9.73;7.80;;;29.50;99.90;;;;;;5022872;28;20534;-75
2022/07/23 06:40:25;;;;;;;7.97;7.20;;;30.00;99.90;;;;;;5004608;28;20577;-76
2022/07/23 06:42:52;;;;;;;8.03;7.23;;;30.30;99.90;;;;;;5020430;28;20162;-75
2022/07/23 06:45:22;;;;;;;9.10;6.90;;;30.60;99.90;;;;;;5021224;28;20598;-76
2022/07/23 06:47:48;;;;;;;9.97;8.87;;;31.10;99.90;;;;;;5029847;28;20583;-77
2022/07/23 06:50:14;;;;;;;8.20;7.40;;;31.40;99.90;;;;;;5013845;28;20582;-76
2022/07/23 06:52:42;;;;;;;8.43;7.53;;;31.70;99.90;;;;;;5030495;28;20566;-76
2022/07/23 06:55:08;;;;;;;8.07;7.33;;;32.10;99.90;;;;;;5030487;28;21135;-76
2022/07/23 06:57:34;;;;;;;9.83;8.17;;;32.30;99.90;;;;;;5030668;28;20188;-76
2022/07/23 07:00:00;;;;;;;8.20;7.40;;;32.60;99.90;;;;;;5033712;28;20603;-76
2022/07/23 07:02:25;;;;;;;9.80;7.70;;;32.60;99.90;;;;;;5031775;28;20171;-76
2022/07/23 07:04:52;;;;;;;7.20;6.50;;;32.50;99.90;;;;;;5032869;28;20194;-76
2022/07/23 07:07:17;;;;;;;7.00;6.40;;;32.50;99.90;;;;;;5032173;28;20535;-76
2022/07/23 07:09:44;;;;;;;8.10;6.47;;;32.30;99.90;;;;;;5029997;28;20612;-76
2022/07/23 07:12:11;;;;;;;7.60;6.80;;;32.50;99.90;;;;;;5044259;28;20182;-76
2022/07/23 07:14:37;;;;;;;7.43;6.47;;;32.60;99.90;;;;;;5028255;28;20631;-76
2022/07/23 07:17:03;;;;;;;6.80;6.20;;;32.80;99.90;;;;;;5023982;28;20595;-76
2022/07/23 07:19:29;;;;;;;7.43;6.13;;;33.10;99.90;;;;;;5025177;28;20640;-76
2022/07/23 07:21:54;;;;;;;7.50;5.97;;;33.40;99.90;;;;;;5029865;28;20373;-76
2022/07/23 07:24:20;;;;;;;6.30;5.70;;;33.80;99.90;;;;;;5029171;28;20177;-76
2022/07/23 07:26:46;;;;;;;6.03;5.43;;;34.30;99.90;;;;;;5030551;28;20161;-76
2022/07/23 07:29:12;;;;;;;6.30;4.90;;;34.70;99.00;;;;;;5031595;28;20193;-78
2022/07/23 07:31:37;;;;;;;5.57;4.97;;;34.90;97.60;;;;;;5031405;28;20245;-77
2022/07/23 07:34:03;;;;;;;5.80;5.30;;;35.20;96.10;;;;;;5016815;28;20605;-76
2022/07/23 07:36:29;;;;;;;5.80;5.20;;;35.40;95.00;;;;;;5039336;28;20158;-76
2022/07/23 07:38:55;;;;;;;6.20;5.43;;;35.70;94.50;;;;;;5035174;28;20225;-76
2022/07/23 07:41:23;;;;;;;7.37;5.77;;;36.00;93.90;;;;;;5034983;28;20993;-77
2022/07/23 07:43:50;;;;;;;5.60;5.00;;;36.40;93.50;;;;;;5034988;28;20165;-77
2022/07/23 07:46:16;;;;;;;5.63;4.33;;;36.80;91.40;;;;;;5034510;28;20595;-76
2022/07/23 07:48:42;;;;;;;5.33;4.83;;;37.20;91.30;;;;;;5033822;28;20624;-77
2022/07/23 07:51:08;;;;;;;5.10;4.60;;;37.60;90.80;;;;;;5034578;28;20173;-77
2022/07/23 07:53:33;;;;;;;4.60;3.90;;;38.00;88.00;;;;;;5034865;28;20208;-76
2022/07/23 07:55:59;;;;;;;4.03;3.60;;;38.40;84.80;;;;;;5033186;28;20576;-77
2022/07/23 07:58:25;;;;;;;3.53;3.23;;;38.60;80.90;;;;;;5034642;28;20325;-76
2022/07/23 08:00:51;;;;;;;3.70;3.37;;;38.70;75.80;;;;;;5034179;28;20166;-76
2022/07/23 08:03:17;;;;;;;4.87;4.37;;;38.40;75.10;;;;;;5034694;28;20618;-76
2022/07/23 08:05:43;;;;;;;3.90;3.33;;;38.20;72.30;;;;;;5048484;28;20196;-76
2022/07/23 08:08:14;;;;;;;4.97;3.50;;;37.80;70.70;;;;;;5034495;28;20173;-76
2022/07/23 08:10:40;;;;;;;4.53;4.13;;;37.30;68.50;;;;;;5034497;28;20591;-76
2022/07/23 08:13:06;;;;;;;4.47;3.80;;;36.80;69.50;;;;;;5038584;28;20600;-76
2022/07/23 08:15:32;;;;;;;6.23;5.40;;;36.20;68.40;;;;;;5033182;28;20580;-76
2022/07/23 08:17:58;;;;;;;6.20;5.40;;;35.80;69.00;;;;;;5033866;28;20184;-77
2022/07/23 08:20:25;;;;;;;4.20;3.77;;;35.40;69.20;;;;;;5034785;28;20179;-76
2022/07/23 08:22:56;;;;;;;6.50;5.70;;;34.90;69.70;;;;;;5034806;28;20584;-76
2022/07/23 08:25:29;;;;;;;6.43;5.13;;;34.70;70.20;;;;;;5034236;28;20603;-76
2022/07/23 08:27:55;;;;;;;5.50;5.00;;;34.70;71.60;;;;;;5033276;28;20559;-76
2022/07/23 08:30:22;;;;;;;7.93;5.67;;;34.50;71.10;;;;;;5033382;28;20964;-76
2022/07/23 08:32:57;;;;;;;5.53;5.00;;;34.20;70.30;;;;;;5034203;28;20576;-76
2022/07/23 08:35:46;;;;;;;6.00;5.40;;;33.80;70.10;;;;;;5034209;28;20577;-76
2022/07/23 08:38:13;;;;;;;6.20;5.60;;;33.40;72.90;;;;;;5034858;28;20593;-76
2022/07/23 08:40:42;;;;;;;7.40;6.70;;;33.10;71.40;;;;;;5034071;28;20565;-76
2022/07/23 08:43:13;;;;;;;7.20;6.00;;;32.70;71.10;;;;;;5016419;28;20574;-76
2022/07/23 08:45:45;;;;;;;6.83;6.23;;;32.50;71.90;;;;;;5031833;28;20580;-76
2022/07/23 08:48:14;;;;;;;5.60;5.10;;;32.60;74.20;;;;;;5033936;28;20604;-76
2022/07/23 08:50:45;;;;;;;7.73;7.03;;;33.00;76.50;;;;;;5033282;28;20692;-76
2022/07/23 08:53:11;;;;;;;6.77;6.07;;;33.50;76.00;;;;;;5032311;28;20711;-76
2022/07/23 08:55:37;;;;;;;6.83;6.13;;;33.90;75.60;;;;;;5031853;28;20954;-76
2022/07/23 08:58:03;;;;;;;6.67;6.00;;;34.30;76.60;;;;;;5034078;28;20599;-76
2022/07/23 09:00:29;;;;;;;7.37;6.67;;;34.70;75.60;;;;;;5033989;28;20238;-75
2022/07/23 09:02:55;;;;;;;6.93;6.30;;;35.10;74.40;;;;;;5033984;28;20240;-76
2022/07/23 09:05:21;;;;;;;7.37;5.57;;;35.60;74.20;;;;;;5033835;28;20603;-76
2022/07/23 09:08:06;;;;;;;6.80;6.23;;;36.10;73.80;;;;;;5033573;28;20170;-76
2022/07/23 09:10:44;;;;;;;7.40;6.70;;;36.70;73.00;;;;;;5032705;28;20161;-76
2022/07/23 09:13:39;;;;;;;10.17;7.20;;;37.20;70.30;;;;;;5032376;28;20646;-76
2022/07/23 09:16:24;;;;;;;6.60;6.00;;;37.30;67.70;;;;;;5033600;28;21105;-76
2022/07/23 09:18:53;;;;;;;5.83;5.33;;;37.50;68.90;;;;;;5033403;28;20615;-76
2022/07/23 09:21:34;;;;;;;5.97;5.50;;;37.90;66.10;;;;;;5033755;28;20959;-76
2022/07/23 09:24:16;;;;;;;7.03;6.30;;;38.20;64.90;;;;;;5032343;28;20626;-76
2022/07/23 09:26:44;;;;;;;6.90;6.20;;;38.60;60.90;;;;;;5037428;28;20600;-76
2022/07/23 09:29:15;;;;;;;5.77;5.27;;;38.90;62.30;;;;;;5033532;28;20597;-76
2022/07/23 09:31:51;;;;;;;7.73;7.03;;;39.20;60.80;;;;;;5033103;28;20679;-76
2022/07/23 09:34:25;;;;;;;6.90;6.30;;;39.10;59.00;;;;;;5031793;28;20619;-76
2022/07/23 09:37:13;;;;;;;8.60;7.70;;;39.00;58.20;;;;;;5031482;28;20588;-77
2022/07/23 09:39:40;;;;;;;7.77;7.13;;;39.00;56.50;;;;;;5023272;28;20614;-76
2022/07/23 09:42:20;;;;;;;7.63;7.03;;;39.00;57.10;;;;;;5029462;28;20587;-76
2022/07/23 09:44:48;;;;;;;6.80;6.30;;;39.10;57.60;;;;;;5032684;28;20580;-76
2022/07/23 09:47:15;;;;;;;7.10;6.40;;;39.40;57.60;;;;;;5032359;28;20622;-76
2022/07/23 09:49:56;;;;;;;7.13;6.00;;;39.60;57.10;;;;;;5032516;28;20592;-76
2022/07/23 09:52:28;;;;;;;7.37;5.80;;;39.90;56.10;;;;;;5015185;28;20642;-76
2022/07/23 09:54:59;;;;;;;6.07;5.47;;;40.20;55.80;;;;;;5032383;28;20618;-76
2022/07/23 09:57:26;;;;;;;6.80;6.30;;;40.40;55.00;;;;;;5032823;28;21165;-76
2022/07/23 09:59:52;;;;;;;4.93;4.43;;;40.60;54.00;;;;;;5032855;28;20639;-77
2022/07/23 10:02:18;;;;;;;7.00;5.23;;;40.80;53.20;;;;;;5032830;28;20600;-75
2022/07/23 10:05:08;;;;;;;6.47;5.80;;;40.60;51.40;;;;;;5033157;28;20941;-76
2022/07/23 10:08:12;;;;;;;6.37;5.30;;;40.40;51.50;;;;;;5030191;28;21201;-76
2022/07/23 10:11:03;;;;;;;5.57;4.70;;;40.30;50.30;;;;;;5022214;28;20683;-76
2022/07/23 10:14:02;;;;;;;6.00;5.40;;;40.20;51.00;;;;;;5023884;28;20734;-76
2022/07/23 10:16:47;;;;;;;7.83;4.30;;;40.20;50.60;;;;;;5032287;28;20592;-76
2022/07/23 10:19:13;;;;;;;4.60;4.20;;;40.10;50.20;;;;;;5032891;28;21277;-75
2022/07/23 10:21:47;;;;;;;4.53;4.17;;;39.90;49.70;;;;;;5036706;28;20600;-76
2022/07/23 10:24:35;;;;;;;4.33;3.80;;;39.40;48.30;;;;;;5035186;28;20626;-77
2022/07/23 10:27:25;;;;;;;4.00;3.60;;;38.70;48.20;;;;;;5037205;28;20624;-75
2022/07/23 10:30:09;;;;;;;5.47;4.97;;;38.20;49.10;;;;;;5000212;28;20646;-75
2022/07/23 10:32:56;;;;;;;4.67;4.27;;;37.60;49.30;;;;;;5030692;28;21002;-76
2022/07/23 10:35:33;;;;;;;6.40;4.03;;;37.30;49.00;;;;;;5030195;28;20580;-75
2022/07/23 10:38:12;;;;;;;5.73;5.23;;;37.10;50.60;;;;;;5030559;28;20571;-75
2022/07/23 10:41:00;;;;;;;4.07;3.70;;;37.10;50.00;;;;;;5037736;28;20567;-76
2022/07/23 10:43:27;;;;;;;4.00;2.93;;;37.00;51.50;;;;;;5031506;28;21096;-75
2022/07/23 10:45:53;;;;;;;3.23;2.70;;;37.30;52.40;;;;;;5031346;28;20934;-76
2022/07/23 10:48:22;;;;;;;4.00;3.57;;;37.50;51.80;;;;;;5031576;28;20620;-76
2022/07/23 10:51:14;;;;;;;3.50;3.20;;;37.70;51.10;;;;;;5031405;28;20600;-76
2022/07/23 10:53:52;;;;;;;3.87;3.53;;;37.90;51.10;;;;;;5031426;28;20619;-76
2022/07/23 10:56:58;;;;;;;3.33;3.03;;;38.10;50.10;;;;;;5031281;28;20730;-76
2022/07/23 10:59:24;;;;;;;4.07;3.60;;;38.20;49.70;;;;;;5031570;28;20658;-76
2022/07/23 11:01:51;;;;;;;4.37;3.97;;;38.30;50.30;;;;;;5031213;28;21292;-76
2022/07/23 11:04:16;;;;;;;4.67;3.37;;;38.30;49.10;;;;;;5031262;28;20622;-76
2022/07/23 11:06:48;;;;;;;4.60;4.20;;;38.20;47.50;;;;;;5031468;28;20560;-76
2022/07/23 11:09:40;;;;;;;4.97;4.47;;;38.10;46.50;;;;;;5035458;28;20688;-76
2022/07/23 11:12:21;;;;;;;5.47;4.30;;;38.00;48.60;;;;;;5035397;28;20671;-76
2022/07/23 11:15:10;;;;;;;4.43;4.00;;;37.90;48.10;;;;;;5035138;28;20666;-76
2022/07/23 11:18:00;;;;;;;3.60;3.30;;;37.90;48.40;;;;;;5039653;28;20630;-76
2022/07/23 11:20:26;;;;;;;3.83;3.47;;;37.80;48.50;;;;;;5036877;28;20591;-76
2022/07/23 11:22:56;;;;;;;4.10;3.60;;;37.70;47.80;;;;;;5035357;28;21141;-76
2022/07/23 11:25:21;;;;;;;5.03;2.93;;;37.50;47.20;;;;;;5052100;28;20166;-76
2022/07/23 11:27:48;;;;;;;3.83;3.30;;;37.40;48.00;;;;;;5035147;28;20618;-76
2022/07/23 11:30:30;;;;;;;3.57;3.20;;;37.30;48.00;;;;;;5033838;28;20201;-76
2022/07/23 11:33:11;;;;;;;3.90;2.77;;;37.10;47.70;;;;;;5019381;28;20987;-76
2022/07/23 11:35:38;;;;;;;3.13;2.77;;;37.10;48.50;;;;;;5035405;28;20561;-76
2022/07/23 11:38:15;;;;;;;3.00;2.63;;;37.10;47.90;;;;;;5035025;28;20560;-76
2022/07/23 11:40:43;;;;;;;3.83;3.03;;;37.20;48.30;;;;;;5033761;28;20629;-75
2022/07/23 11:43:10;;;;;;;3.83;3.47;;;37.20;48.70;;;;;;5035707;28;20572;-76
2022/07/23 11:45:42;;;;;;;3.43;3.13;;;37.20;47.90;;;;;;5034695;28;20568;-76
2022/07/23 11:48:23;;;;;;;4.33;3.80;;;37.10;48.30;;;;;;5035177;28;20576;-76
2022/07/23 11:50:50;;;;;;;4.23;2.97;;;37.10;48.20;;;;;;5034641;28;21218;-76
2022/07/23 11:53:27;;;;;;;3.13;2.70;;;37.20;47.80;;;;;;5038807;28;20765;-76
2022/07/23 11:55:54;;;;;;;2.80;2.60;;;37.10;47.20;;;;;;5034586;28;20568;-76
2022/07/23 11:58:21;;;;;;;3.10;2.57;;;37.20;47.30;;;;;;5034681;28;20951;-76
2022/07/23 12:00:47;;;;;;;3.20;2.90;;;37.00;47.70;;;;;;5034645;28;20934;-76
2022/07/23 12:03:13;;;;;;;3.83;3.50;;;37.00;47.50;;;;;;5034538;28;20687;-76
2022/07/23 12:05:40;;;;;;;4.03;3.40;;;37.00;47.90;;;;;;5034142;28;20614;-76
2022/07/23 12:08:08;;;;;;;3.00;2.73;;;36.90;46.80;;;;;;5034476;28;21456;-76
2022/07/23 12:10:44;;;;;;;4.80;2.90;;;36.80;46.40;;;;;;5033051;28;20577;-76
2022/07/23 12:13:17;;;;;;;5.00;3.00;;;36.60;45.60;;;;;;5033089;28;20730;-76
2022/07/23 12:15:48;;;;;;;4.93;3.07;;;36.50;45.50;;;;;;5033913;28;20651;-76
2022/07/23 12:18:20;;;;;;;3.20;2.60;;;36.20;44.90;;;;;;5033765;28;20615;-76
2022/07/23 12:20:49;;;;;;;2.60;2.17;;;36.00;45.30;;;;;;5031988;28;20556;-76
2022/07/23 12:23:18;;;;;;;2.00;1.80;;;35.90;45.80;;;;;;5034049;28;20929;-76
2022/07/23 12:25:45;;;;;;;2.43;2.23;;;35.80;46.00;;;;;;5033709;28;20910;-76
2022/07/23 12:28:15;;;;;;;3.40;2.40;;;35.70;46.10;;;;;;5034010;28;20592;-76
2022/07/23 12:30:48;;;;;;;4.00;1.97;;;35.60;45.00;;;;;;5037935;28;21123;-76
2022/07/23 12:33:29;;;;;;;2.47;2.03;;;35.50;45.00;;;;;;5033806;28;20615;-76
2022/07/23 12:36:06;;;;;;;1.90;1.70;;;35.30;45.00;;;;;;5034023;28;20568;-76
2022/07/23 12:38:46;;;;;;;2.63;2.33;;;35.10;45.60;;;;;;5033912;28;20584;-76
2022/07/23 12:41:12;;;;;;;3.10;1.90;;;35.00;45.60;;;;;;5032657;28;20599;-76
2022/07/23 12:43:40;;;;;;;3.40;1.80;;;34.80;45.70;;;;;;5034130;28;20649;-76
2022/07/23 12:46:20;;;;;;;2.83;1.90;;;34.70;46.40;;;;;;5033452;28;20714;-76
2022/07/23 12:48:54;;;;;;;3.20;1.93;;;34.60;46.20;;;;;;5033469;28;20606;-76